createdAt,value
2022-08-17T00:00:34.883Z,59.04
2022-08-17T00:03:05.913Z,59.30
2022-08-17T00:05:40.052Z,59.15
2022-08-17T00:08:06.973Z,58.96
2022-08-17T00:10:33.956Z,58.90
2022-08-17T00:13:06.180Z,58.93
2022-08-17T00:15:32.932Z,58.82
2022-08-17T00:18:02.350Z,58.61
2022-08-17T00:20:34.864Z,58.51
2022-08-17T00:23:15.572Z,58.44
2022-08-17T00:25:44.523Z,58.87
2022-08-17T00:28:20.874Z,58.03
2022-08-17T00:30:53.403Z,58.28
2022-08-17T00:33:26.509Z,57.92
2022-08-17T00:35:57.796Z,58.11
2022-08-17T00:38:27.713Z,57.72
2022-08-17T00:41:03.965Z,57.34
2022-08-17T00:43:44.164Z,56.97
2022-08-17T00:46:14.408Z,56.64
2022-08-17T00:48:44.883Z,57.12
2022-08-17T00:51:17.538Z,57.27
2022-08-17T00:53:54.993Z,57.85
2022-08-17T00:56:32.369Z,58.15
2022-08-17T00:59:06.789Z,58.39
2022-08-17T01:01:33.902Z,58.10
2022-08-17T01:04:05.103Z,58.22
2022-08-17T01:06:32.764Z,57.98
2022-08-17T01:09:00.691Z,57.98
2022-08-17T01:11:30.023Z,58.31
2022-08-17T01:13:59.216Z,58.74
2022-08-17T01:16:30.954Z,59.07
2022-08-17T01:19:09.420Z,59.94
2022-08-17T01:22:04.160Z,60.15
2022-08-17T01:24:34.218Z,60.01
2022-08-17T01:27:01.470Z,59.66
2022-08-17T01:29:31.021Z,61.05
2022-08-17T01:32:01.198Z,60.37
2022-08-17T01:34:35.263Z,61.09
2022-08-17T01:37:10.866Z,60.50
2022-08-17T01:39:48.077Z,61.22
2022-08-17T01:42:26.221Z,60.59
2022-08-17T01:44:56.727Z,60.58
2022-08-17T01:47:23.992Z,60.21
2022-08-17T01:49:50.819Z,60.04
2022-08-17T01:52:17.607Z,60.13
2022-08-17T01:54:47.721Z,60.00
2022-08-17T01:57:14.846Z,59.82
2022-08-17T01:59:41.531Z,59.95
2022-08-17T02:02:08.766Z,60.21
2022-08-17T02:04:36.032Z,60.15
2022-08-17T02:07:03.110Z,60.24
2022-08-17T02:09:31.386Z,60.22
2022-08-17T02:12:38.042Z,60.08
2022-08-17T02:14:51.316Z,60.12
2022-08-17T02:17:18.608Z,60.22
2022-08-17T02:19:47.511Z,60.65
2022-08-17T02:22:14.248Z,60.27
2022-08-17T02:24:59.386Z,60.00
2022-08-17T02:27:27.776Z,59.99
2022-08-17T02:29:54.535Z,59.84
2022-08-17T02:32:28.362Z,59.85
2022-08-17T02:34:58.028Z,59.55
2022-08-17T02:37:26.773Z,59.78
2022-08-17T02:39:53.782Z,59.77
2022-08-17T02:42:34.409Z,59.88
2022-08-17T02:45:02.572Z,59.70
2022-08-17T02:47:29.764Z,59.74
2022-08-17T02:50:00.165Z,59.63
2022-08-17T02:52:43.252Z,59.48
2022-08-17T02:55:24.605Z,59.69
2022-08-17T02:57:55.042Z,59.28
2022-08-17T03:00:26.522Z,59.33
2022-08-17T03:02:54.092Z,59.36
2022-08-17T03:05:25.826Z,59.28
2022-08-17T03:07:55.303Z,59.36
2022-08-17T03:10:22.723Z,59.00
2022-08-17T03:12:53.107Z,58.89
2022-08-17T03:15:31.553Z,58.66
2022-08-17T03:17:59.373Z,58.66
2022-08-17T03:20:27.543Z,58.57
2022-08-17T03:23:02.876Z,58.54
2022-08-17T03:25:36.346Z,58.66
2022-08-17T03:28:04.711Z,58.52
2022-08-17T03:30:31.487Z,58.58
2022-08-17T03:33:03.039Z,58.66
2022-08-17T03:35:34.332Z,58.83
2022-08-17T03:38:05.386Z,58.70
2022-08-17T03:40:34.565Z,59.37
2022-08-17T03:43:20.936Z,59.66
2022-08-17T03:46:11.061Z,59.96
2022-08-17T03:49:14.311Z,59.86
2022-08-17T03:51:59.817Z,60.08
2022-08-17T03:54:45.244Z,60.47
2022-08-17T03:57:16.689Z,60.51
2022-08-17T03:59:45.111Z,60.38
2022-08-17T04:02:16.518Z,60.67
2022-08-17T04:04:45.892Z,60.48
2022-08-17T04:07:15.101Z,60.63
2022-08-17T04:09:43.190Z,60.46
2022-08-17T04:12:10.043Z,60.71
2022-08-17T04:14:53.245Z,60.83
2022-08-17T04:17:22.548Z,61.47
2022-08-17T04:19:49.383Z,61.76
2022-08-17T04:22:33.155Z,62.76
2022-08-17T04:25:05.915Z,62.73
2022-08-17T04:27:34.108Z,62.72
2022-08-17T04:30:07.683Z,62.98
2022-08-17T04:33:06.453Z,62.92
2022-08-17T04:35:39.527Z,62.53
2022-08-17T04:38:07.710Z,62.81
2022-08-17T04:40:53.969Z,62.89
2022-08-17T04:43:24.932Z,62.82
2022-08-17T04:45:57.965Z,62.84
2022-08-17T04:48:36.690Z,62.88
2022-08-17T04:51:11.094Z,62.57
2022-08-17T04:53:44.183Z,62.61
2022-08-17T04:56:16.588Z,62.72
2022-08-17T04:58:51.707Z,62.40
2022-08-17T05:01:23.849Z,62.44
2022-08-17T05:03:56.264Z,63.05
2022-08-17T05:06:26.424Z,62.91
2022-08-17T05:08:56.796Z,62.79
2022-08-17T05:11:26.873Z,63.17
2022-08-17T05:13:54.843Z,63.45
2022-08-17T05:16:22.747Z,62.93
2022-08-17T05:18:52.227Z,62.94
2022-08-17T05:21:23.092Z,62.54
2022-08-17T05:23:54.896Z,62.65
2022-08-17T05:26:27.391Z,62.83
2022-08-17T05:28:59.409Z,63.29
2022-08-17T05:31:31.373Z,63.13
2022-08-17T05:33:58.725Z,62.88
2022-08-17T05:36:37.946Z,62.88
2022-08-17T05:39:16.089Z,62.74
2022-08-17T05:41:45.588Z,62.55
2022-08-17T05:44:12.348Z,62.20
2022-08-17T05:46:44.109Z,62.12
2022-08-17T05:49:11.174Z,61.73
2022-08-17T05:52:02.500Z,61.90
2022-08-17T05:54:51.748Z,61.66
2022-08-17T05:57:53.335Z,61.69
2022-08-17T06:00:59.704Z,61.50
2022-08-17T06:03:42.554Z,61.27
2022-08-17T06:06:42.100Z,61.17
2022-08-17T06:09:27.622Z,60.88
2022-08-17T06:12:03.681Z,61.09
2022-08-17T06:15:01.496Z,60.89
2022-08-17T06:17:31.585Z,60.83
2022-08-17T06:20:01.740Z,60.60
2022-08-17T06:22:33.773Z,60.60
2022-08-17T06:25:10.014Z,60.18
2022-08-17T06:27:43.987Z,60.30
2022-08-17T06:30:26.182Z,60.12
2022-08-17T06:32:55.402Z,60.13
2022-08-17T06:35:34.124Z,60.01
2022-08-17T06:38:00.844Z,59.78
2022-08-17T06:40:33.438Z,59.59
2022-08-17T06:43:13.611Z,59.32
2022-08-17T06:45:51.279Z,59.01
2022-08-17T06:48:25.133Z,58.20
2022-08-17T06:51:00.425Z,57.20
2022-08-17T06:53:35.211Z,57.01
2022-08-17T06:56:06.404Z,56.13
2022-08-17T06:58:35.600Z,56.26
2022-08-17T07:01:17.950Z,54.98
2022-08-17T07:03:54.617Z,55.63
2022-08-17T07:06:29.108Z,55.00
2022-08-17T07:09:02.368Z,55.19
2022-08-17T07:11:40.635Z,54.69
2022-08-17T07:14:29.010Z,53.68
2022-08-17T07:17:04.423Z,52.66
2022-08-17T07:19:33.240Z,51.56
2022-08-17T07:22:06.224Z,51.81
2022-08-17T07:24:43.213Z,51.48
2022-08-17T07:27:22.606Z,50.88
2022-08-17T07:29:56.634Z,51.16
2022-08-17T07:32:29.264Z,51.34
2022-08-17T07:35:10.770Z,51.50
2022-08-17T07:37:39.587Z,51.63
2022-08-17T07:40:47.483Z,50.36
2022-08-17T07:43:32.850Z,49.71
2022-08-17T07:46:19.859Z,50.32
2022-08-17T07:48:52.029Z,50.28
2022-08-17T07:51:29.485Z,50.04
2022-08-17T07:54:13.573Z,48.46
2022-08-17T07:56:56.577Z,47.77
2022-08-17T07:59:34.700Z,48.03
2022-08-17T08:02:06.268Z,46.26
2022-08-17T08:07:32.036Z,45.99
2022-08-17T08:10:09.617Z,45.53
2022-08-17T08:12:37.761Z,44.44
2022-08-17T08:15:25.747Z,43.07
2022-08-17T08:18:03.106Z,43.88
2022-08-17T08:20:53.535Z,44.13
2022-08-17T08:23:36.303Z,44.08
2022-08-17T08:26:18.469Z,43.87
2022-08-17T08:28:51.798Z,43.88
2022-08-17T08:32:06.146Z,43.29
2022-08-17T08:35:01.502Z,43.57
2022-08-17T08:37:57.583Z,41.90
2022-08-17T08:40:54.740Z,43.35
2022-08-17T08:43:53.013Z,42.29
2022-08-17T08:46:31.961Z,42.73
2022-08-17T08:50:02.092Z,41.54
2022-08-17T08:52:34.044Z,41.35
2022-08-17T08:55:08.399Z,42.03
2022-08-17T08:57:41.587Z,41.75
2022-08-17T09:00:16.560Z,41.61
2022-08-17T09:03:05.220Z,41.08
2022-08-17T09:06:38.533Z,40.65
2022-08-17T09:09:25.559Z,38.83
2022-08-17T09:12:04.299Z,40.52
2022-08-17T09:14:59.511Z,39.69
2022-08-17T09:17:39.566Z,39.66
2022-08-17T09:20:28.118Z,38.92
2022-08-17T09:23:04.022Z,39.22
2022-08-17T09:25:44.233Z,37.96
2022-08-17T09:28:19.409Z,37.82
2022-08-17T09:31:02.467Z,38.47
2022-08-17T09:33:34.477Z,37.98
2022-08-17T09:36:11.258Z,36.79
2022-08-17T09:38:49.414Z,35.26
2022-08-17T09:41:16.135Z,36.41
2022-08-17T09:43:57.436Z,35.53
2022-08-17T09:46:32.448Z,36.32
2022-08-17T09:49:10.754Z,35.61
2022-08-17T09:51:51.859Z,35.93
2022-08-17T09:54:41.129Z,35.77
2022-08-17T09:57:28.549Z,35.98
2022-08-17T10:00:18.722Z,34.70
2022-08-17T10:02:53.485Z,35.55
2022-08-17T10:05:33.214Z,35.29
2022-08-17T10:08:12.534Z,34.88
2022-08-17T10:10:52.385Z,33.66
2022-08-17T10:13:41.832Z,32.84
2022-08-17T10:16:42.158Z,31.13
2022-08-17T10:19:34.652Z,32.07
2022-08-17T10:22:37.937Z,32.70
2022-08-17T10:25:48.625Z,32.65
2022-08-17T10:28:29.450Z,32.02
2022-08-17T10:31:23.299Z,31.50
2022-08-17T10:33:57.792Z,31.13
2022-08-17T10:36:47.412Z,29.48
2022-08-17T10:39:23.010Z,31.07
2022-08-17T10:41:54.354Z,28.61
2022-08-17T10:44:42.431Z,30.44
2022-08-17T10:47:16.995Z,29.32
2022-08-17T10:49:54.051Z,29.34
2022-08-17T10:52:21.994Z,27.92
2022-08-17T10:54:51.484Z,28.81
2022-08-17T10:57:34.606Z,26.96
2022-08-17T11:00:27.817Z,28.05
2022-08-17T11:02:58.372Z,27.53
2022-08-17T11:05:55.719Z,26.61
2022-08-17T11:08:54.229Z,26.56
2022-08-17T11:11:45.358Z,23.76
2022-08-17T11:14:18.097Z,25.61
2022-08-17T11:17:08.469Z,23.56
2022-08-17T11:20:15.115Z,25.36
2022-08-17T11:23:11.015Z,24.30
2022-08-17T11:25:41.252Z,25.70
2022-08-17T11:28:19.862Z,25.81
2022-08-17T11:30:50.817Z,25.90
2022-08-17T11:33:31.966Z,25.14
2022-08-17T11:36:15.775Z,24.58
2022-08-17T11:38:47.780Z,24.09
2022-08-17T11:41:17.367Z,21.97
2022-08-17T11:44:03.951Z,23.40
2022-08-17T11:46:53.334Z,22.91
2022-08-17T11:50:05.574Z,23.62
2022-08-17T11:52:42.127Z,23.06
2022-08-17T11:55:39.321Z,23.04
2022-08-17T11:58:29.058Z,22.63
2022-08-17T12:01:04.427Z,22.14
2022-08-17T12:03:36.880Z,23.28
2022-08-17T12:06:07.779Z,22.05
2022-08-17T12:08:43.440Z,22.06
2022-08-17T12:11:19.019Z,22.11
2022-08-17T12:14:07.435Z,22.19
2022-08-17T12:16:34.284Z,22.60
2022-08-17T12:19:02.527Z,22.43
2022-08-17T12:21:38.339Z,21.42
2022-08-17T12:24:17.518Z,20.73
2022-08-17T12:26:59.790Z,20.83
2022-08-17T12:29:35.561Z,19.87
2022-08-17T12:32:07.094Z,19.46
2022-08-17T12:34:43.087Z,18.96
2022-08-17T12:37:21.225Z,18.69
2022-08-17T12:40:00.347Z,19.43
2022-08-17T12:42:31.079Z,19.17
2022-08-17T12:45:05.022Z,19.97
2022-08-17T12:47:37.180Z,20.05
2022-08-17T12:50:29.120Z,19.66
2022-08-17T12:53:02.240Z,20.18
2022-08-17T12:55:32.525Z,20.08
2022-08-17T12:58:01.799Z,20.80
2022-08-17T13:00:41.835Z,20.50
2022-08-17T13:03:20.975Z,19.48
2022-08-17T13:06:03.766Z,19.16
2022-08-17T13:08:37.898Z,18.64
2022-08-17T13:11:06.417Z,18.13
2022-08-17T13:13:39.115Z,17.05
2022-08-17T13:16:13.485Z,15.63
2022-08-17T13:18:45.973Z,16.31
2022-08-17T13:21:28.178Z,16.74
2022-08-17T13:24:02.763Z,16.79
2022-08-17T13:26:41.306Z,17.70
2022-08-17T13:29:29.030Z,16.70
2022-08-17T13:32:18.000Z,15.81
2022-08-17T13:35:12.154Z,16.46
2022-08-17T13:37:41.051Z,15.93
2022-08-17T13:40:11.770Z,15.22
2022-08-17T13:42:54.180Z,13.35
2022-08-17T13:45:39.891Z,14.99
2022-08-17T13:48:14.094Z,15.45
2022-08-17T13:50:41.432Z,14.76
2022-08-17T13:53:24.759Z,14.99
2022-08-17T13:56:37.675Z,14.83
2022-08-17T13:59:12.511Z,15.63
2022-08-17T14:01:54.022Z,15.35
2022-08-17T14:04:23.815Z,16.20
2022-08-17T14:07:03.711Z,15.79
2022-08-17T14:09:40.956Z,16.30
2022-08-17T14:12:17.020Z,16.30
2022-08-17T14:14:46.456Z,16.11
2022-08-17T14:17:18.510Z,15.17
2022-08-17T14:19:45.391Z,13.54
2022-08-17T14:22:23.672Z,13.17
2022-08-17T14:24:53.723Z,14.07
2022-08-17T14:30:32.158Z,13.22
2022-08-17T14:33:10.247Z,13.83
2022-08-17T14:35:39.956Z,14.25
2022-08-17T14:38:06.727Z,13.48
2022-08-17T14:40:34.813Z,13.55
2022-08-17T14:43:01.680Z,13.78
2022-08-17T14:45:33.734Z,12.68
2022-08-17T14:48:04.540Z,12.61
2022-08-17T14:50:35.922Z,13.47
2022-08-17T14:53:04.625Z,14.04
2022-08-17T14:55:34.368Z,14.20
2022-08-17T14:58:01.223Z,13.71
2022-08-17T15:00:28.936Z,14.18
2022-08-17T15:02:59.011Z,14.44
2022-08-17T15:05:31.920Z,14.87
2022-08-17T15:08:07.261Z,14.83
2022-08-17T15:10:34.418Z,14.29
2022-08-17T15:13:04.531Z,14.50
2022-08-17T15:15:33.736Z,14.35
2022-08-17T15:18:03.845Z,13.91
2022-08-17T15:20:33.296Z,13.13
2022-08-17T15:23:07.056Z,13.17
2022-08-17T15:25:36.671Z,13.04
2022-08-17T15:28:06.463Z,13.54
2022-08-17T15:30:35.792Z,13.64
2022-08-17T15:33:05.772Z,14.29
2022-08-17T15:35:34.519Z,13.00
2022-08-17T15:38:12.085Z,13.60
2022-08-17T15:40:43.483Z,13.67
2022-08-17T15:43:19.291Z,13.98
2022-08-17T15:45:59.617Z,13.96
2022-08-17T15:48:41.537Z,14.23
2022-08-17T15:51:08.658Z,15.22
2022-08-17T15:53:39.450Z,15.68
2022-08-17T15:56:09.733Z,15.94
2022-08-17T15:58:49.623Z,16.17
2022-08-17T16:03:06.215Z,16.43
2022-08-17T16:04:28.426Z,16.77
2022-08-17T16:07:02.984Z,17.23
2022-08-17T16:09:30.164Z,17.04
2022-08-17T16:11:57.376Z,17.40
2022-08-17T16:14:33.553Z,18.01
2022-08-17T16:17:03.940Z,18.57
2022-08-17T16:19:34.444Z,18.75
2022-08-17T16:22:04.189Z,18.81
2022-08-17T16:24:33.954Z,18.98
2022-08-17T16:27:01.498Z,19.08
2022-08-17T16:29:28.293Z,19.29
2022-08-17T16:31:58.112Z,20.09
2022-08-17T16:34:24.871Z,19.98
2022-08-17T16:36:56.028Z,20.11
2022-08-17T16:39:25.305Z,20.22
2022-08-17T16:41:52.200Z,20.19
2022-08-17T16:44:21.573Z,20.58
2022-08-17T16:46:48.959Z,20.37
2022-08-17T16:49:35.820Z,20.66
2022-08-17T16:52:11.912Z,20.73
2022-08-17T16:54:43.630Z,20.61
2022-08-17T16:57:11.699Z,21.01
2022-08-17T16:59:43.674Z,21.20
2022-08-17T17:02:28.834Z,21.17
2022-08-17T17:05:25.168Z,21.52
2022-08-17T17:08:04.002Z,21.76
2022-08-17T17:10:33.631Z,21.73
2022-08-17T17:13:03.479Z,22.03
2022-08-17T17:15:46.730Z,22.29
2022-08-17T17:18:18.227Z,22.82
2022-08-17T17:20:57.236Z,22.56
2022-08-17T17:23:32.955Z,22.34
2022-08-17T17:26:06.205Z,23.16
2022-08-17T17:28:48.875Z,23.17
2022-08-17T17:31:42.471Z,22.72
2022-08-17T17:34:13.840Z,22.95
2022-08-17T17:36:48.339Z,23.54
2022-08-17T17:39:20.098Z,23.58
2022-08-17T17:42:03.190Z,23.81
2022-08-17T17:44:38.055Z,23.43
2022-08-17T17:47:05.868Z,23.81
2022-08-17T17:49:36.967Z,24.13
2022-08-17T17:52:29.084Z,24.19
2022-08-17T17:55:07.673Z,24.16
2022-08-17T17:57:55.970Z,24.94
2022-08-17T18:00:26.441Z,24.59
2022-08-17T18:03:04.428Z,24.59
2022-08-17T18:05:57.266Z,24.62
2022-08-17T18:08:38.993Z,24.50
2022-08-17T18:11:25.184Z,24.59
2022-08-17T18:14:37.034Z,24.97
2022-08-17T18:17:07.566Z,24.80
2022-08-17T18:19:34.924Z,24.98
2022-08-17T18:22:14.013Z,25.41
2022-08-17T18:24:46.622Z,25.42
2022-08-17T18:27:25.643Z,25.50
2022-08-17T18:29:56.536Z,25.78
2022-08-17T18:32:33.165Z,25.73
2022-08-17T18:35:19.799Z,26.02
2022-08-17T18:37:57.801Z,25.88
2022-08-17T18:40:33.065Z,26.22
2022-08-17T18:43:15.474Z,26.32
2022-08-17T18:45:48.982Z,26.24
2022-08-17T18:48:27.283Z,26.90
2022-08-17T18:51:14.257Z,27.07
2022-08-17T18:53:41.861Z,27.46
2022-08-17T18:56:31.198Z,28.44
2022-08-17T18:59:02.179Z,28.09
2022-08-17T19:01:52.374Z,29.84
2022-08-17T19:04:34.892Z,28.89
2022-08-17T19:07:12.632Z,29.22
2022-08-17T19:09:44.083Z,29.74
2022-08-17T19:12:26.277Z,29.71
2022-08-17T19:14:55.945Z,29.90
2022-08-17T19:17:29.062Z,30.59
2022-08-17T19:20:04.431Z,30.78
2022-08-17T19:22:50.072Z,31.85
2022-08-17T19:25:27.095Z,31.19
2022-08-17T19:28:02.010Z,31.17
2022-08-17T19:30:30.420Z,31.02
2022-08-17T19:32:58.673Z,30.51
2022-08-17T19:35:40.571Z,31.02
2022-08-17T19:38:27.639Z,30.69
2022-08-17T19:41:28.783Z,30.42
2022-08-17T19:44:22.246Z,30.49
2022-08-17T19:47:06.191Z,30.30
2022-08-17T19:50:10.866Z,30.45
2022-08-17T19:52:57.672Z,30.28
2022-08-17T19:55:33.086Z,30.27
2022-08-17T19:58:18.004Z,30.61
2022-08-17T20:00:51.712Z,30.97
2022-08-17T20:03:27.456Z,30.97
2022-08-17T20:06:15.070Z,30.88
2022-08-17T20:09:03.673Z,31.44
2022-08-17T20:11:42.291Z,31.71
2022-08-17T20:14:16.225Z,31.97
2022-08-17T20:16:45.715Z,32.58
2022-08-17T20:19:29.959Z,32.82
2022-08-17T20:22:04.007Z,32.74
2022-08-17T20:24:46.710Z,32.89
2022-08-17T20:27:17.218Z,32.70
2022-08-17T20:29:55.360Z,33.36
2022-08-17T20:32:30.474Z,32.91
2022-08-17T20:35:15.047Z,33.23
2022-08-17T20:37:44.828Z,33.53
2022-08-17T20:40:19.186Z,33.37
2022-08-17T20:42:46.174Z,33.42
2022-08-17T20:45:22.006Z,33.86
2022-08-17T20:50:57.863Z,34.78
2022-08-17T20:53:49.691Z,35.15
2022-08-17T20:56:44.409Z,34.99
2022-08-17T20:59:34.446Z,35.18
2022-08-17T21:02:17.673Z,35.32
2022-08-17T21:04:55.961Z,35.49
2022-08-17T21:07:43.224Z,35.91
2022-08-17T21:10:16.433Z,35.29
2022-08-17T21:12:48.760Z,35.48
2022-08-17T21:15:39.645Z,36.02
2022-08-17T21:18:28.293Z,35.39
2022-08-17T21:21:17.403Z,36.38
2022-08-17T21:24:08.799Z,36.80
2022-08-17T21:27:00.438Z,36.45
2022-08-17T21:29:34.273Z,36.29
2022-08-17T21:32:09.598Z,36.49
2022-08-17T21:35:18.841Z,37.34
2022-08-17T21:37:46.058Z,37.88
2022-08-17T21:40:18.277Z,37.02
2022-08-17T21:42:54.844Z,37.08
2022-08-17T21:45:35.570Z,37.17
2022-08-17T21:48:21.111Z,37.29
2022-08-17T21:51:12.122Z,37.70
2022-08-17T21:53:51.668Z,37.34
2022-08-17T21:56:36.414Z,37.61
2022-08-17T21:59:13.158Z,37.35
2022-08-17T22:01:51.417Z,37.98
2022-08-17T22:04:29.031Z,37.62
2022-08-17T22:07:02.790Z,37.92
2022-08-17T22:09:31.659Z,37.89
2022-08-17T22:12:03.568Z,37.90
2022-08-17T22:14:51.438Z,38.05
2022-08-17T22:17:37.945Z,38.21
2022-08-17T22:20:08.955Z,38.13
2022-08-17T22:23:19.926Z,38.14
2022-08-17T22:26:05.292Z,38.93
2022-08-17T22:28:36.941Z,38.71
2022-08-17T22:31:10.341Z,38.45
2022-08-17T22:33:42.832Z,38.55
2022-08-17T22:36:11.295Z,38.88
2022-08-17T22:38:41.730Z,39.11
2022-08-17T22:41:34.669Z,39.14
2022-08-17T22:44:17.262Z,39.16
2022-08-17T22:47:00.343Z,39.51
2022-08-17T22:49:38.561Z,39.60
2022-08-17T22:52:34.449Z,40.10
2022-08-17T22:55:35.148Z,39.88
2022-08-17T22:58:21.469Z,39.92
2022-08-17T23:00:49.712Z,40.47
2022-08-17T23:03:22.278Z,40.88
2022-08-17T23:06:11.596Z,41.28
2022-08-17T23:08:59.391Z,40.33
2022-08-17T23:11:49.323Z,43.07
2022-08-17T23:14:25.344Z,43.06
2022-08-17T23:16:52.164Z,42.77
2022-08-17T23:19:26.435Z,42.48
2022-08-17T23:21:56.017Z,42.29
2022-08-17T23:24:26.190Z,41.96
2022-08-17T23:26:59.008Z,41.76
2022-08-17T23:29:31.921Z,42.13
2022-08-17T23:32:01.804Z,42.23
2022-08-17T23:34:28.744Z,42.48
2022-08-17T23:36:58.180Z,41.98
2022-08-17T23:39:27.731Z,41.92
2022-08-17T23:41:58.408Z,42.15
2022-08-17T23:44:25.927Z,41.79
2022-08-17T23:46:56.320Z,42.24
2022-08-17T23:49:26.624Z,42.16
2022-08-17T23:51:55.158Z,42.44
2022-08-17T23:54:21.877Z,42.07
2022-08-17T23:56:51.259Z,42.35
2022-08-17T23:59:20.032Z,42.24
